• Join FlightAware (Why Join?)
  • Login
  • US Flag 
03:08AM EDT


 

Airport Tracker/Info


-or-


 

Live Flight TrackerFlight Track Log ✈ SWA2403 ✈ 15-Apr-2013 ✈ KSMF - KPDX

Flight Track Log - Related Links

Times and Time Zones

All times are in EDT time to prevent confusion due to time zone crossing. See the SWA2403 flight status page for this flight to view local times or setup timezone preferences in your user account.

Time Position Orientation Groundspeed Altitude Reporting Facility
EDT Latitude Longitude Course Direction KTS MPH feet Rate Location/Type
12:12AM 38.8653 -121.6094 357° North 249 287 8,800  Level Oakland Center
12:13AM 38.9358 -121.6483 337° Northwest 274 315 11,600 3,000 Climbing Oakland Center
12:14AM 39.0269 -121.6697 350° North 328 377 14,900 3,300 Climbing Oakland Center
12:15AM 39.1233 -121.6883 351° North 346 398 18,400 3,540 Climbing Oakland Center
12:16AM 39.2194 -121.7072 351° North 347 399 22,100 3,120 Climbing Oakland Center
12:17AM 39.3156 -121.7275 351° North 349 402 24,800 2,280 Climbing Oakland Center
12:18AM 39.4175 -121.7467 352° North 366 421 26,800 2,040 Climbing Oakland Center
12:19AM 39.5261 -121.7683 351° North 384 442 29,000 1,920 Climbing Oakland Center
12:20AM 39.6353 -121.7903 351° North 396 456 30,800 1,620 Climbing Oakland Center
12:21AM 39.7458 -121.8122 351° North 402 463 32,400 1,560 Climbing Oakland Center
12:22AM 39.8614 -121.8356 351° North 418 481 34,000 1,740 Climbing Oakland Center
12:23AM 39.9972 -121.8625 351° North 416 479 36,000 1,560 Climbing Oakland Center
12:24AM 40.1086 -121.8850 351° North 411 473 37,200 960 Climbing Oakland Center
12:25AM 40.2219 -121.9072 351° North 416 479 38,000 360 Climbing Oakland Center
12:26AM 40.3353 -121.9306 351° North 417 480 38,000  Level Oakland Center
12:27AM 40.4497 -121.9539 351° North 420 483 38,000  Level Oakland Center
12:28AM 40.5642 -121.9769 351° North 420 483 38,000  Level Oakland Center
12:29AM 40.6764 -122.0006 351° North 411 473 38,000  Level Oakland Center
12:30AM 40.7900 -122.0233 351° North 415 478 38,000  Level Oakland Center
12:31AM 40.9017 -122.0461 351° North 410 472 38,000  Level Oakland Center
12:32AM 41.0361 -122.0739 351° North 410 472 38,000  Level Oakland Center
12:33AM 41.1275 -122.0967 349° North 412 474 38,000  Level Seattle Center
12:34AM 41.2344 -122.1192 351° North 410 472 38,000  Level Seattle Center
12:35AM 41.3706 -122.1472 351° North 412 474 38,000  Level Oakland Center
12:36AM 41.4614 -122.1656 351° North 412 474 38,000  Level Seattle Center
12:37AM 41.5750 -122.1886 351° North 413 475 38,000  Level Seattle Center
12:38AM 41.7111 -122.2175 351° North 413 475 38,000  Level Seattle Center
12:39AM 41.8256 -122.2414 351° North 412 474 38,000  Level Seattle Center
12:40AM 41.9167 -122.2594 352° North 413 475 38,000  Level Seattle Center
12:41AM 42.0317 -122.2836 351° North 414 476 38,000  Level Seattle Center
12:42AM 42.1472 -122.3081 351° North 415 478 38,000  Level Seattle Center
12:43AM 42.2614 -122.3308 352° North 414 476 38,000  Level Seattle Center
12:44AM 42.3750 -122.3561 351° North 412 474 38,000  Level Seattle Center
12:45AM 42.4883 -122.3808 351° North 411 473 38,000  Level Seattle Center
12:46AM 42.6233 -122.4097 351° North 409 471 38,000  Level Seattle Center
12:47AM 42.7353 -122.4344 351° North 409 471 38,000  Level Seattle Center
12:48AM 42.8467 -122.4592 351° North 411 473 38,000  Level Seattle Center
12:49AM 42.9592 -122.4842 351° North 411 473 38,000  Level Seattle Center
12:50AM 43.0725 -122.5089 351° North 413 475 38,000  Level Seattle Center
12:51AM 43.1853 -122.5342 351° North 413 475 38,000  Level Seattle Center
12:52AM 43.2989 -122.5592 351° North 415 478 38,000  Level Seattle Center
12:53AM 43.4119 -122.5839 351° North 414 476 38,000  Level Seattle Center
12:54AM 43.5239 -122.6086 351° North 409 471 38,000  Level Seattle Center
12:55AM 43.6383 -122.6347 351° North 416 479 38,000 -360 Level Seattle Center
12:56AM 43.7508 -122.6608 350° North 415 478 37,300 -840 Descending Seattle Center
12:57AM 43.8639 -122.6875 350° North 414 476 36,400 -960 Descending Seattle Center
12:58AM 43.9761 -122.7122 351° North 412 474 35,400 -1,680 Descending Seattle Center
12:59AM 44.0850 -122.7372 351° North 404 465 33,100 -2,340 Descending Seattle Center
01:00AM 44.1925 -122.7494 355° North 393 452 30,700 -2,700 Descending Seattle Center
01:01AM 44.3153 -122.7375 North 371 427 27,700 -3,000 Descending Seattle Center
01:02AM 44.4078 -122.7278 North 352 405 24,600 -2,460 Descending Seattle Center
01:03AM 44.5017 -122.7169 North 343 395 22,800 -2,040 Descending Seattle Center
01:04AM 44.5933 -122.7094 North 335 386 20,600 -2,160 Descending Seattle Center
01:05AM 44.6844 -122.7008 North 332 382 18,500 -2,040 Descending Seattle Center
01:06AM 44.7553 -122.6925 North 325 374 17,000 -2,100 Descending Seattle Center
01:07AM 44.8639 -122.6819 North 329 379 14,300 -2,220 Descending Seattle Center
01:08AM 44.9569 -122.6722 North 329 379 12,100 -1,440 Descending Seattle Center
01:09AM 45.0503 -122.6622 North 305 351 11,500 -1,140 Descending Seattle Center
01:10AM 45.1175 -122.6839 347° North 272 313 10,000 -1,740 Descending Seattle Center
01:11AM 45.1958 -122.7075 348° North 260 299 8,000 -1,680 Descending Seattle Center
01:12AM 45.2617 -122.7331 345° North 265 305 6,700 -1,380 Descending Seattle Center
01:13AM 45.3308 -122.7542 348° North 253 291 5,400 -1,380 Descending Seattle Center
01:14AM 45.3986 -122.7789 346° North 247 284 4,000 -1,260 Descending Seattle Center
01:15AM 45.4589 -122.7978 348° North 243 280 3,000 -540 Descending Seattle Center
01:16AM 45.5233 -122.8178 348° North 235 270 3,000 -120 Level Seattle Center
01:17AM 45.5828 -122.8000 12° North 211 243 2,800 -420 Descending Seattle Center
01:18AM 45.6306 -122.7683 25° Northeast 172 198 2,200 -540 Descending Seattle Center
01:19AM 45.6350 -122.7047 84° East 145 167 1,700 -660 Descending Seattle Center
01:21AM 45.6144 -122.6450 116° Southeast 143 165 800 -480 Descending Seattle Center
01:22AM 45.5972 -122.5997 119° Southeast 147 169 700 -120 Descending Seattle Center